Aérodrome :
LOGIN :

S'inscrire | Disclaimer

   EN    FR    IT 

 










Légende :    VFR   VFR Marginal   IFR   IFR Intensif   IFR Très Intensif
Visi : 
Plafond : 
>= 8 km
>= 3000ft
5 à 8 km
1000 à 3000 ft
1500m à 5 km
500 à 1000 ft
800 à 1500m
200 à 500 ft
< 800m
< 200 ft
Symboles :   Orages  Brouillard  Fortes neiges  Fortes précipitations  Vent > 20 kt
SIGMETs :   Divers  Orages  Givrage  Turbulence  Onde Orograph.  Cendres Volcan.






- Altitude de l'aérodrome : 364 ft


LFAQ - Albert Bray

DERNIER METAR :
  • 021100Z AUTO VRB06KT CAVOK 22/09 Q1020 NOSIG

METARs EXPIRÉS :
  • 021030Z AUTO 19010KT 140V230 CAVOK 21/09 Q1021 NOSIG
  • 021000Z AUTO 19009KT CAVOK 21/09 Q1021 NOSIG
  • 020930Z AUTO 20010KT 170V230 CAVOK 21/09 Q1021 NOSIG
  • 020900Z AUTO 21008KT 170V240 CAVOK 20/10 Q1021 NOSIG
  • 020830Z AUTO 18008KT CAVOK 19/11 Q1021 NOSIG

TAF TAF LFAQ
Valide du 02 à 09h jusqu'au 02 à 18h UTC


020800Z 0209/0218 16006KT CAVOK
BECMG 0216/0218 30010KT



MET'MAP, la Météo Aéronautique d'un coup d'oeil ! - Copyright ORBIFLY Décembre 2007 - Disclaimer

ORBIFLY MET'MAP TEAM :

Programmation & Développement : Alexandra Zaïnal
Sur une idée originale de : Baudouin d'Aumeries
Soutien technique & logistique : Manuel Goepfert
Assistance : Marc-Olivier Méhu




SOURCES & CREDITS :

   NOAA